createdAt,value
2023-04-17T00:02:49.939Z,1.65
2023-04-17T00:05:54.012Z,1.83
2023-04-17T00:08:56.232Z,1.42
2023-04-17T00:11:58.500Z,1.42
2023-04-17T00:15:00.895Z,1.70
2023-04-17T00:18:03.025Z,1.37
2023-04-17T00:21:05.329Z,1.60
2023-04-17T00:24:07.788Z,1.65
2023-04-17T00:27:10.128Z,1.50
2023-04-17T00:30:12.574Z,1.25
2023-04-17T00:33:14.730Z,1.50
2023-04-17T00:36:16.909Z,1.75
2023-04-17T00:39:19.039Z,1.70
2023-04-17T00:42:21.165Z,1.05
2023-04-17T00:45:23.367Z,1.20
2023-04-17T00:48:25.629Z,1.40
2023-04-17T00:51:28.228Z,1.40
2023-04-17T00:54:31.751Z,1.60
2023-04-17T00:57:34.331Z,1.50
2023-04-17T01:00:36.512Z,1.70
2023-04-17T01:03:38.769Z,1.63
2023-04-17T01:06:41.892Z,1.50
2023-04-17T01:09:44.126Z,1.70
2023-04-17T01:12:49.121Z,1.50
2023-04-17T01:15:51.403Z,1.73
2023-04-17T01:18:53.618Z,1.50
2023-04-17T01:21:55.884Z,1.60
2023-04-17T01:24:58.803Z,1.70
2023-04-17T01:28:05.660Z,1.53
2023-04-17T01:31:10.573Z,1.40
2023-04-17T01:34:32.930Z,1.65
2023-04-17T01:37:35.356Z,1.40
2023-04-17T01:40:37.546Z,1.73
2023-04-17T01:43:48.779Z,1.70
2023-04-17T01:46:51.288Z,1.63
2023-04-17T01:50:29.874Z,1.70
2023-04-17T01:54:10.765Z,1.70
2023-04-17T02:01:38.284Z,1.73
2023-04-17T02:04:40.777Z,1.33
2023-04-17T02:07:43.160Z,2.03
2023-04-17T02:10:45.454Z,1.60
2023-04-17T02:13:47.809Z,1.60
2023-04-17T02:16:50.181Z,1.80
2023-04-17T02:19:52.431Z,1.50
2023-04-17T02:22:55.375Z,1.43
2023-04-17T02:25:57.974Z,1.35
2023-04-17T02:29:00.195Z,1.67
2023-04-17T02:32:02.371Z,1.53
2023-04-17T02:35:06.136Z,1.50
2023-04-17T02:38:08.834Z,1.52
2023-04-17T02:41:11.390Z,1.60
2023-04-17T02:44:14.539Z,1.92
2023-04-17T02:47:16.702Z,1.50
2023-04-17T02:50:18.922Z,1.73
2023-04-17T02:53:49.113Z,1.40
2023-04-17T02:56:55.559Z,1.50
2023-04-17T02:59:57.772Z,1.20
2023-04-17T03:03:00.189Z,1.20
2023-04-17T03:06:02.840Z,1.85
2023-04-17T03:09:06.345Z,1.60
2023-04-17T03:12:08.524Z,1.50
2023-04-17T03:15:11.018Z,1.30
2023-04-17T03:18:13.256Z,1.70
2023-04-17T03:21:15.498Z,1.48
2023-04-17T03:24:17.754Z,1.30
2023-04-17T03:27:24.445Z,1.13
2023-04-17T03:30:31.148Z,1.48
2023-04-17T03:33:40.288Z,1.20
2023-04-17T03:36:42.972Z,1.35
2023-04-17T03:39:45.096Z,1.48
2023-04-17T03:42:47.268Z,1.52
2023-04-17T03:45:49.509Z,2.00
2023-04-17T03:48:52.286Z,1.67
2023-04-17T03:51:54.788Z,1.70
2023-04-17T03:54:58.100Z,2.00
2023-04-17T03:58:01.247Z,1.88
2023-04-17T04:01:10.938Z,2.00
2023-04-17T04:04:19.339Z,1.60
2023-04-17T04:07:22.017Z,1.80
2023-04-17T04:10:25.880Z,1.60
2023-04-17T04:13:29.561Z,1.75
2023-04-17T04:16:35.216Z,1.73
2023-04-17T04:19:46.053Z,1.85
2023-04-17T04:22:49.704Z,1.50
2023-04-17T04:25:52.824Z,1.57
2023-04-17T04:29:05.714Z,1.55
2023-04-17T04:32:20.145Z,1.45
2023-04-17T04:35:25.973Z,1.53
2023-04-17T04:38:31.239Z,1.20
2023-04-17T04:41:38.420Z,1.65
2023-04-17T04:44:44.050Z,1.40
2023-04-17T04:47:46.271Z,1.80
2023-04-17T04:50:48.737Z,1.48
2023-04-17T04:53:51.408Z,1.75
2023-04-17T04:56:54.477Z,1.80
2023-04-17T04:59:56.927Z,1.77
2023-04-17T05:03:07.914Z,1.67
2023-04-17T05:06:11.301Z,1.47
2023-04-17T05:09:18.625Z,1.30
2023-04-17T05:12:23.204Z,1.60
2023-04-17T05:15:25.684Z,1.70
2023-04-17T05:18:28.162Z,1.80
2023-04-17T05:21:31.469Z,1.50
2023-04-17T05:24:34.047Z,1.38
2023-04-17T05:27:36.316Z,1.60
2023-04-17T05:30:38.691Z,1.50
2023-04-17T05:33:49.103Z,1.75
2023-04-17T05:36:51.348Z,1.70
2023-04-17T05:39:53.526Z,1.60
2023-04-17T05:42:55.675Z,1.80
2023-04-17T05:45:57.943Z,1.98
2023-04-17T05:49:00.315Z,1.63
2023-04-17T05:52:02.579Z,1.73
2023-04-17T05:55:05.607Z,1.98
2023-04-17T05:58:23.204Z,1.67
2023-04-17T06:01:29.954Z,1.77
2023-04-17T06:04:36.312Z,1.60
2023-04-17T06:07:39.202Z,1.80
2023-04-17T06:10:41.780Z,2.00
2023-04-17T06:13:47.850Z,1.50
2023-04-17T06:16:52.021Z,1.70
2023-04-17T06:19:54.353Z,1.80
2023-04-17T06:22:59.458Z,2.00
2023-04-17T06:26:02.810Z,1.70
2023-04-17T06:29:05.532Z,1.83
2023-04-17T06:32:09.490Z,2.28
2023-04-17T06:35:12.868Z,1.92
2023-04-17T06:38:29.277Z,2.07
2023-04-17T06:41:38.199Z,1.80
2023-04-17T06:44:40.494Z,2.45
2023-04-17T06:47:48.184Z,1.90
2023-04-17T06:50:55.421Z,1.85
2023-04-17T06:53:57.944Z,1.80
2023-04-17T06:57:03.311Z,1.90
2023-04-17T07:00:08.332Z,1.83
2023-04-17T07:03:12.589Z,1.83
2023-04-17T07:06:18.515Z,1.58
2023-04-17T07:09:21.094Z,1.80
2023-04-17T07:12:23.584Z,1.90
2023-04-17T07:15:41.893Z,2.00
2023-04-17T07:18:47.639Z,2.30
2023-04-17T07:21:51.783Z,2.22
2023-04-17T07:24:54.208Z,1.88
2023-04-17T07:27:56.927Z,2.05
2023-04-17T07:30:59.147Z,1.90
2023-04-17T07:34:02.412Z,2.47
2023-04-17T07:37:07.701Z,2.30
2023-04-17T07:40:11.039Z,2.13
2023-04-17T07:43:13.854Z,2.10
2023-04-17T07:46:20.041Z,2.25
2023-04-17T07:49:31.166Z,1.95
2023-04-17T07:52:37.538Z,1.80
2023-04-17T07:55:45.538Z,1.98
2023-04-17T07:58:52.394Z,2.20
2023-04-17T08:01:55.346Z,1.87
2023-04-17T08:05:06.610Z,2.03
2023-04-17T08:08:10.491Z,1.67
2023-04-17T08:11:15.550Z,1.93
2023-04-17T08:14:20.231Z,1.55
2023-04-17T08:17:23.371Z,1.65
2023-04-17T08:20:25.657Z,2.20
2023-04-17T08:23:27.856Z,1.90
2023-04-17T08:26:30.161Z,1.83
2023-04-17T08:29:35.000Z,1.70
2023-04-17T08:32:48.525Z,1.60
2023-04-17T08:35:52.227Z,1.63
2023-04-17T08:38:54.837Z,1.55
2023-04-17T08:42:01.615Z,1.73
2023-04-17T08:45:06.382Z,1.33
2023-04-17T08:48:08.692Z,1.70
2023-04-17T08:51:11.223Z,1.23
2023-04-17T08:54:31.287Z,1.60
2023-04-17T08:57:59.733Z,1.58
2023-04-17T09:01:24.614Z,1.65
2023-04-17T09:04:44.456Z,1.63
2023-04-17T09:08:06.746Z,1.63
2023-04-17T09:11:17.313Z,1.90
2023-04-17T09:14:30.669Z,1.73
2023-04-17T09:17:34.757Z,1.90
2023-04-17T09:20:52.932Z,1.70
2023-04-17T09:23:56.746Z,2.10
2023-04-17T09:27:28.960Z,1.83
2023-04-17T09:30:38.811Z,1.85
2023-04-17T09:34:00.167Z,1.60
2023-04-17T09:37:08.627Z,1.50
2023-04-17T09:40:15.134Z,1.80
2023-04-17T09:43:17.928Z,1.83
2023-04-17T09:46:32.767Z,1.90
2023-04-17T09:49:43.061Z,2.03
2023-04-17T09:53:00.500Z,2.13
2023-04-17T09:56:09.422Z,1.60
2023-04-17T09:59:12.788Z,2.28
2023-04-17T10:02:19.943Z,2.30
2023-04-17T10:05:26.025Z,1.90
2023-04-17T10:08:28.883Z,2.00
2023-04-17T10:11:40.185Z,2.20
2023-04-17T10:14:47.010Z,1.80
2023-04-17T10:17:50.297Z,1.77
2023-04-17T10:20:56.517Z,1.90
2023-04-17T10:24:26.281Z,1.63
2023-04-17T10:27:33.862Z,1.75
2023-04-17T10:30:55.812Z,1.85
2023-04-17T10:33:58.575Z,1.90
2023-04-17T10:37:01.508Z,1.95
2023-04-17T10:40:09.888Z,2.20
2023-04-17T10:43:20.808Z,2.17
2023-04-17T10:46:27.340Z,2.00
2023-04-17T10:49:51.180Z,2.00
2023-04-17T10:52:53.394Z,1.85
2023-04-17T10:55:58.372Z,1.85
2023-04-17T10:59:38.677Z,2.15
2023-04-17T11:02:51.288Z,1.98
2023-04-17T11:05:58.064Z,2.28
2023-04-17T11:09:00.810Z,2.10
2023-04-17T11:12:03.832Z,1.80
2023-04-17T11:18:24.312Z,1.85
2023-04-17T11:21:26.518Z,2.23
2023-04-17T11:24:30.261Z,1.80
2023-04-17T11:27:35.324Z,2.05
2023-04-17T11:30:42.254Z,1.92
2023-04-17T11:33:44.524Z,2.10
2023-04-17T11:37:01.857Z,2.05
2023-04-17T11:40:10.312Z,1.95
2023-04-17T11:43:13.714Z,2.20
2023-04-17T11:46:19.739Z,2.28
2023-04-17T11:49:30.636Z,2.00
2023-04-17T11:52:33.052Z,1.87
2023-04-17T11:55:37.700Z,1.65
2023-04-17T11:58:47.659Z,2.00
2023-04-17T12:01:53.338Z,2.38
2023-04-17T12:05:12.853Z,2.40
2023-04-17T12:08:15.561Z,2.17
2023-04-17T12:11:24.915Z,2.60
2023-04-17T12:14:27.339Z,2.30
2023-04-17T12:17:29.688Z,2.45
2023-04-17T12:20:33.932Z,2.30
2023-04-17T12:23:42.486Z,2.60
2023-04-17T12:26:50.378Z,2.20
2023-04-17T12:29:52.865Z,2.60
2023-04-17T12:32:57.940Z,2.65
2023-04-17T12:36:03.208Z,2.65
2023-04-17T12:39:05.508Z,2.58
2023-04-17T12:42:16.912Z,2.20
2023-04-17T12:45:19.755Z,2.50
2023-04-17T12:48:24.167Z,2.80
2023-04-17T12:51:29.748Z,2.85
2023-04-17T12:54:31.975Z,2.80
2023-04-17T12:57:35.729Z,2.60
2023-04-17T13:00:39.103Z,2.80
2023-04-17T13:03:41.716Z,2.88
2023-04-17T13:06:44.046Z,3.10
2023-04-17T13:09:46.455Z,3.35
2023-04-17T13:12:48.578Z,3.17
2023-04-17T13:15:50.757Z,3.00
2023-04-17T13:18:52.916Z,2.67
2023-04-17T13:21:55.114Z,2.53
2023-04-17T13:24:57.246Z,3.17
2023-04-17T13:28:00.107Z,3.72
2023-04-17T13:31:02.299Z,3.28
2023-04-17T13:34:04.494Z,3.13
2023-04-17T13:37:07.291Z,3.03
2023-04-17T13:40:10.785Z,2.90
2023-04-17T13:43:12.919Z,3.00
2023-04-17T13:46:16.322Z,2.87
2023-04-17T13:49:19.540Z,3.42
2023-04-17T13:52:21.811Z,3.28
2023-04-17T13:55:24.089Z,3.07
2023-04-17T13:58:26.367Z,3.03
2023-04-17T14:01:28.574Z,3.08
2023-04-17T14:04:31.704Z,2.72
2023-04-17T14:07:33.948Z,2.35
2023-04-17T14:10:36.239Z,2.58
2023-04-17T14:13:38.470Z,3.30
2023-04-17T14:16:41.102Z,2.40
2023-04-17T14:19:43.199Z,2.38
2023-04-17T14:22:52.793Z,2.53
2023-04-17T14:25:55.046Z,2.57
2023-04-17T14:28:57.304Z,2.95
2023-04-17T14:31:59.461Z,3.17
2023-04-17T14:35:01.730Z,2.70
2023-04-17T14:38:05.082Z,2.42
2023-04-17T14:41:07.419Z,2.70
2023-04-17T14:44:09.644Z,2.72
2023-04-17T14:47:13.089Z,2.20
2023-04-17T14:50:15.432Z,2.55
2023-04-17T14:53:18.826Z,2.50
2023-04-17T14:56:22.499Z,2.27
2023-04-17T14:59:26.464Z,2.60
2023-04-17T15:02:28.737Z,2.58
2023-04-17T15:05:31.067Z,2.50
2023-04-17T15:08:33.229Z,2.60
2023-04-17T15:11:36.237Z,2.60
2023-04-17T15:14:38.390Z,2.45
2023-04-17T15:17:40.833Z,2.80
2023-04-17T15:20:43.079Z,2.90
2023-04-17T15:23:45.324Z,2.50
2023-04-17T15:26:48.933Z,2.83
2023-04-17T15:29:51.129Z,2.55
2023-04-17T15:32:53.368Z,2.10
2023-04-17T15:35:58.423Z,2.33
2023-04-17T15:39:00.903Z,2.28
2023-04-17T15:42:03.517Z,2.80
2023-04-17T15:45:06.243Z,3.03
2023-04-17T15:48:08.629Z,2.43
2023-04-17T15:51:10.906Z,2.60
2023-04-17T15:54:13.123Z,2.63
2023-04-17T15:57:15.279Z,2.80
2023-04-17T16:00:17.918Z,2.78
2023-04-17T16:03:20.478Z,2.50
2023-04-17T16:06:22.814Z,2.90
2023-04-17T16:09:27.054Z,2.42
2023-04-17T16:12:29.168Z,2.47
2023-04-17T16:15:31.482Z,2.60
2023-04-17T16:18:33.749Z,2.50
2023-04-17T16:21:36.665Z,2.63
2023-04-17T16:24:38.901Z,2.47
2023-04-17T16:27:41.134Z,2.70
2023-04-17T16:30:43.347Z,2.33
2023-04-17T16:33:45.928Z,2.25
2023-04-17T16:36:48.590Z,2.75
2023-04-17T16:39:51.055Z,2.92
2023-04-17T16:42:53.688Z,2.50
2023-04-17T16:45:56.194Z,2.55
2023-04-17T16:48:58.600Z,2.53
2023-04-17T16:52:02.248Z,2.50
2023-04-17T16:55:04.723Z,2.47
2023-04-17T16:58:06.883Z,2.67
2023-04-17T17:01:09.373Z,2.42
2023-04-17T17:04:11.609Z,2.15
2023-04-17T17:07:13.906Z,2.30
2023-04-17T17:10:16.008Z,2.42
2023-04-17T17:13:18.186Z,2.65
2023-04-17T17:16:20.979Z,2.83
2023-04-17T17:19:23.150Z,2.60
2023-04-17T17:22:25.547Z,2.78
2023-04-17T17:25:27.708Z,2.30
2023-04-17T17:28:29.954Z,2.40
2023-04-17T17:31:33.494Z,2.30
2023-04-17T17:34:36.012Z,2.50
2023-04-17T17:37:38.121Z,2.63
2023-04-17T17:40:40.287Z,2.75
2023-04-17T17:43:43.052Z,2.78
2023-04-17T17:46:45.238Z,2.83
2023-04-17T17:49:47.912Z,2.60
2023-04-17T17:52:50.115Z,2.95
2023-04-17T17:55:53.925Z,3.00
2023-04-17T17:58:56.064Z,3.00
2023-04-17T18:01:58.808Z,2.80
2023-04-17T18:05:01.168Z,3.25
2023-04-17T18:08:03.769Z,3.63
2023-04-17T18:11:06.134Z,3.45
2023-04-17T18:14:08.514Z,3.05
2023-04-17T18:17:10.810Z,3.33
2023-04-17T18:20:13.086Z,3.07
2023-04-17T18:23:15.436Z,3.42
2023-04-17T18:26:17.626Z,3.20
2023-04-17T18:29:20.180Z,2.97
2023-04-17T18:32:22.390Z,3.40
2023-04-17T18:35:24.668Z,3.08
2023-04-17T18:38:26.925Z,2.80
2023-04-17T18:41:29.022Z,2.72
2023-04-17T18:44:31.303Z,3.10
2023-04-17T18:47:33.460Z,3.25
2023-04-17T18:50:38.344Z,2.90
2023-04-17T18:53:40.541Z,2.80
2023-04-17T18:56:43.516Z,2.60
2023-04-17T18:59:45.638Z,2.63
2023-04-17T19:02:47.902Z,2.75
2023-04-17T19:05:50.294Z,2.80
2023-04-17T19:08:54.557Z,3.08
2023-04-17T19:11:57.490Z,3.10
2023-04-17T19:14:59.667Z,2.90
2023-04-17T19:18:01.944Z,2.95
2023-04-17T19:21:04.365Z,2.23
2023-04-17T19:24:08.414Z,2.90
2023-04-17T19:27:10.713Z,2.70
2023-04-17T19:30:13.138Z,2.93
2023-04-17T19:33:15.310Z,2.63
2023-04-17T19:36:17.513Z,2.35
2023-04-17T19:39:19.712Z,2.28
2023-04-17T19:42:21.905Z,2.60
2023-04-17T19:45:24.063Z,2.42
2023-04-17T19:48:26.261Z,2.40
2023-04-17T19:51:28.483Z,2.50
2023-04-17T19:54:30.743Z,2.40
2023-04-17T19:57:32.999Z,1.75
2023-04-17T20:00:35.642Z,1.83
2023-04-17T20:03:39.286Z,2.08
2023-04-17T20:06:42.290Z,1.95
2023-04-17T20:09:44.454Z,1.80
2023-04-17T20:12:46.550Z,1.42
2023-04-17T20:15:48.714Z,2.00
2023-04-17T20:18:52.044Z,1.98
2023-04-17T20:21:54.174Z,1.60
2023-04-17T20:24:56.403Z,1.42
2023-04-17T20:27:58.571Z,1.75
2023-04-17T20:31:00.814Z,1.73
2023-04-17T20:34:03.585Z,1.67
2023-04-17T20:37:05.774Z,1.48
2023-04-17T20:40:12.092Z,1.70
2023-04-17T20:43:14.241Z,1.85
2023-04-17T20:46:16.389Z,1.50
2023-04-17T20:49:18.567Z,1.60
2023-04-17T20:52:20.720Z,1.40
2023-04-17T20:55:24.213Z,1.67
2023-04-17T20:58:26.461Z,1.40
2023-04-17T21:01:28.748Z,1.97
2023-04-17T21:04:30.939Z,1.83
2023-04-17T21:07:33.116Z,2.03
2023-04-17T21:10:35.266Z,1.83
2023-04-17T21:13:37.454Z,1.80
2023-04-17T21:16:41.475Z,1.92
2023-04-17T21:19:43.683Z,2.05
2023-04-17T21:22:45.845Z,1.87
2023-04-17T21:25:50.526Z,1.63
2023-04-17T21:28:52.802Z,2.13
2023-04-17T21:31:55.836Z,1.87
2023-04-17T21:34:58.026Z,2.22
2023-04-17T21:38:00.219Z,1.77
2023-04-17T21:41:03.740Z,1.98
2023-04-17T21:44:06.122Z,2.17
2023-04-17T21:47:08.279Z,2.00
2023-04-17T21:50:10.889Z,1.85
2023-04-17T21:53:13.104Z,1.67
2023-04-17T21:56:15.301Z,2.38
2023-04-17T21:59:18.070Z,2.03
2023-04-17T22:02:20.311Z,2.30
2023-04-17T22:05:24.787Z,1.52
2023-04-17T22:08:27.028Z,1.67
2023-04-17T22:11:29.306Z,2.00
2023-04-17T22:14:31.469Z,2.10
2023-04-17T22:17:33.718Z,1.90
2023-04-17T22:20:36.047Z,2.30
2023-04-17T22:23:38.208Z,1.80
2023-04-17T22:26:43.660Z,1.80
2023-04-17T22:29:45.894Z,2.08
2023-04-17T22:32:48.088Z,2.13
2023-04-17T22:35:50.457Z,2.00
2023-04-17T22:38:52.715Z,1.70
2023-04-17T22:41:54.889Z,1.83
2023-04-17T22:44:57.155Z,2.35
2023-04-17T22:47:59.500Z,1.95
2023-04-17T22:51:02.343Z,1.63
2023-04-17T22:54:15.169Z,1.90
2023-04-17T22:57:21.545Z,2.10
2023-04-17T23:00:25.260Z,2.08
2023-04-17T23:03:27.917Z,1.67
2023-04-17T23:06:31.979Z,1.33
2023-04-17T23:09:34.170Z,2.00
2023-04-17T23:12:36.335Z,1.77
2023-04-17T23:15:38.952Z,1.90
2023-04-17T23:18:41.165Z,2.10
2023-04-17T23:21:43.362Z,2.00
2023-04-17T23:24:45.495Z,1.87
2023-04-17T23:27:47.613Z,2.20
2023-04-17T23:30:49.789Z,1.58
2023-04-17T23:33:51.972Z,1.83
2023-04-17T23:36:54.074Z,1.67
2023-04-17T23:39:56.163Z,1.80
2023-04-17T23:42:58.440Z,1.88
2023-04-17T23:46:00.833Z,1.77
2023-04-17T23:49:03.503Z,1.85
2023-04-17T23:52:05.745Z,1.98
2023-04-17T23:55:08.459Z,1.53
2023-04-17T23:58:10.651Z,2.05
